M I D A S
Marine Information and Data Acquisition System
Tripno 1822 of the Zeeleeuw from 2009-12-08 08:14:36 to 2009-12-08 17:35:47
Back to CruiseResearch ActivitiesStationsMapUnderway DataData graphs

EquipmentUnitsComment
TimeDGPSUTC
LatitudeDGPSDM.mWGS84
LongitudeDGPSDM.mWGS84
HeadingGyrodeg 
SOGDGPSknotsSpeed over ground
COGDGPSdegCourse over ground
DepthEcho soundermeters200 kHz
Missing or incorrect values are displayed as -999
Navigation data collected by the RV Zeeleeuw from 2009-12-08 08:37:15 to 2009-12-08 17:41:43
                                                                                    Next 1000 lines
Time Latitude Longitude Heading SOG COG Depth
2009-12-08 08:37:25 51°13.661 2°55.956 109.1 0.7 304 8
2009-12-08 08:37:30 51°13.662 2°55.954 109.5 1.1 295 8
2009-12-08 08:37:34 51°13.663 2°55.952 109.6 1.3 305 8
2009-12-08 08:37:39 51°13.664 2°55.949 108.6 1.5 295 8
2009-12-08 08:37:44 51°13.665 2°55.945 108 2 299 8.1
2009-12-08 08:37:49 51°13.666 2°55.941 107.7 2.4 294 -999
2009-12-08 08:37:54 51°13.667 2°55.935 107.7 2.7 293 -999
2009-12-08 08:38:01 51°13.67 2°55.926 107.4 3.1 290 -999
2009-12-08 08:38:06 51°13.671 2°55.92 107 3.3 293 -999
2009-12-08 08:38:12 51°13.673 2°55.911 106.5 3.5 290 -999
2009-12-08 08:38:17 51°13.675 2°55.903 106.3 3.7 290 -999
2009-12-08 08:38:22 51°13.677 2°55.895 106 3.7 288 -999
2009-12-08 08:38:27 51°13.679 2°55.888 105.8 3.7 289 -999
2009-12-08 08:38:32 51°13.68 2°55.88 105.7 3.7 290 -999
2009-12-08 08:38:37 51°13.682 2°55.872 105.8 3.8 288 -999
2009-12-08 08:38:42 51°13.684 2°55.864 105.9 3.7 291 -999
2009-12-08 08:38:47 51°13.685 2°55.857 105.4 3.6 288 -999
2009-12-08 08:38:52 51°13.687 2°55.849 104.6 3.6 291 -999
2009-12-08 08:38:57 51°13.689 2°55.842 103.8 3.5 289 -999
2009-12-08 08:39:02 51°13.69 2°55.835 102.7 3.4 289 -999
2009-12-08 08:39:07 51°13.692 2°55.827 101.5 3.5 288 -999
2009-12-08 08:39:12 51°13.693 2°55.82 100.2 3.5 288 -999
2009-12-08 08:39:17 51°13.695 2°55.813 98.6 3.5 287 -999
2009-12-08 08:39:22 51°13.696 2°55.806 97.1 3.4 285 -999
2009-12-08 08:39:27 51°13.697 2°55.799 95.3 3.3 285 -999
2009-12-08 08:39:32 51°13.698 2°55.792 93.7 3.2 283 -999
2009-12-08 08:39:37 51°13.698 2°55.785 92 3 284 -999
2009-12-08 08:39:42 51°13.699 2°55.779 90.2 3 280 -999
2009-12-08 08:39:46 51°13.699 2°55.774 88.7 2.9 282 13.4
2009-12-08 08:39:51 51°13.7 2°55.768 87 2.7 280 -999
2009-12-08 08:39:57 51°13.701 2°55.761 85.1 2.4 283 -999
2009-12-08 08:40:02 51°13.702 2°55.758 82.8 1.8 290 -999
2009-12-08 08:40:07 51°13.703 2°55.757 78.9 0.7 312 -999
2009-12-08 08:40:12 51°13.704 2°55.756 71.9 0.9 340 -999
2009-12-08 08:40:17 51°13.706 2°55.756 64.3 0.7 355 -999
2009-12-08 08:40:22 51°13.707 2°55.756 58.1 0.8 357 14.8
2009-12-08 08:40:26 51°13.708 2°55.756 53.6 0.8 356 14.4
2009-12-08 08:40:31 51°13.709 2°55.755 49.8 0.7 341 14.2
2009-12-08 08:40:36 51°13.709 2°55.754 47.5 0.6 302 14.2
2009-12-08 08:40:41 51°13.709 2°55.752 43.6 0.8 268 13.4
2009-12-08 08:40:46 51°13.709 2°55.75 40.1 1.1 256 13.7
2009-12-08 08:40:51 51°13.708 2°55.747 37.6 1.3 242 14.3
2009-12-08 08:40:56 51°13.707 2°55.745 34.6 1.3 247 13.3
2009-12-08 08:41:01 51°13.707 2°55.743 31.8 1.1 247 13.8
2009-12-08 08:41:05 51°13.707 2°55.741 29.4 0.9 262 13.6
2009-12-08 08:41:10 51°13.707 2°55.739 27 0.7 298 13.5
2009-12-08 08:41:15 51°13.709 2°55.739 24.5 0.9 334 13.6
2009-12-08 08:41:20 51°13.71 2°55.738 19.6 1.5 350 13.6
2009-12-08 08:41:25 51°13.713 2°55.737 11 2 347 13.7
2009-12-08 08:41:30 51°13.716 2°55.736 3.3 2.1 346 13.5
2009-12-08 08:41:34 51°13.719 2°55.735 356 2.4 342 13.3
2009-12-08 08:41:39 51°13.722 2°55.733 350.2 2.7 336 13
2009-12-08 08:41:44 51°13.726 2°55.73 341.7 3 333 12.9
2009-12-08 08:41:48 51°13.729 2°55.727 335.3 2.6 330 12.6
2009-12-08 08:41:54 51°13.734 2°55.722 331.1 3.1 327 12.3
2009-12-08 08:41:58 51°13.738 2°55.718 327.5 4.1 327 12.2
2009-12-08 08:42:03 51°13.743 2°55.712 326.7 4.8 324 12.1
2009-12-08 08:42:08 51°13.749 2°55.705 326.6 5.3 326 12.1
2009-12-08 08:42:13 51°13.756 2°55.698 327.1 5.8 326 12.5
2009-12-08 08:42:18 51°13.763 2°55.69 327.2 6.3 326 12.6
2009-12-08 08:42:23 51°13.771 2°55.682 327.7 6.8 328 12.4
2009-12-08 08:42:28 51°13.78 2°55.674 329 7.1 330 12.3
2009-12-08 08:42:33 51°13.788 2°55.667 331.1 7.3 332 12.5
2009-12-08 08:42:38 51°13.798 2°55.659 332.5 7.5 333 11.8
2009-12-08 08:42:43 51°13.807 2°55.652 333.3 7.6 334 11.6
2009-12-08 08:42:48 51°13.817 2°55.645 333.7 7.8 335 11.5
2009-12-08 08:42:53 51°13.827 2°55.638 334.5 8 336 11.3
2009-12-08 08:42:58 51°13.838 2°55.631 335.2 8.1 336 11.6
2009-12-08 08:43:03 51°13.848 2°55.624 336.5 8.2 337 11
2009-12-08 08:43:08 51°13.859 2°55.617 337.5 8.3 338 11.3
2009-12-08 08:43:13 51°13.869 2°55.61 337.9 8.4 338 11.2
2009-12-08 08:43:18 51°13.88 2°55.603 337.7 8.5 338 11.1
2009-12-08 08:43:23 51°13.891 2°55.596 337.6 8.5 338 11.3
2009-12-08 08:43:29 51°13.905 2°55.588 337.6 8.5 339 11.3
2009-12-08 08:43:33 51°13.914 2°55.582 338.2 8.6 339 11.2
2009-12-08 08:43:38 51°13.925 2°55.576 338.7 8.6 339 11.2
2009-12-08 08:43:43 51°13.936 2°55.569 338.4 8.6 338 11
2009-12-08 08:43:49 51°13.949 2°55.561 337.8 8.6 339 11
2009-12-08 08:43:53 51°13.958 2°55.555 337.6 8.7 339 11
2009-12-08 08:43:58 51°13.97 2°55.549 337.9 8.7 340 11.2
2009-12-08 08:44:03 51°13.981 2°55.542 339.1 8.7 341 11.1
2009-12-08 08:44:08 51°13.992 2°55.536 339.4 8.6 340 11.1
2009-12-08 08:44:13 51°14.003 2°55.529 338.6 8.6 340 11
2009-12-08 08:44:18 51°14.014 2°55.522 337.9 8.7 338 10.9
2009-12-08 08:44:23 51°14.026 2°55.515 337.9 8.7 339 10.9
2009-12-08 08:44:28 51°14.037 2°55.508 337.4 8.7 337 10.9
2009-12-08 08:44:33 51°14.048 2°55.5 336.1 8.7 335 11
2009-12-08 08:44:38 51°14.059 2°55.492 335.9 8.7 338 11
2009-12-08 08:44:43 51°14.07 2°55.485 336.8 8.7 338 11
2009-12-08 08:44:48 51°14.082 2°55.478 336.9 8.7 338 11
2009-12-08 08:44:53 51°14.093 2°55.47 335.9 8.7 336 11
2009-12-08 08:44:58 51°14.104 2°55.462 334.7 8.7 335 10.9
2009-12-08 08:45:03 51°14.115 2°55.454 334.4 8.8 335 11
2009-12-08 08:45:08 51°14.126 2°55.445 334 8.8 334 11.1
2009-12-08 08:45:13 51°14.137 2°55.436 332.7 8.9 332 10.9
2009-12-08 08:45:18 51°14.147 2°55.427 331.7 8.8 332 10.9
2009-12-08 08:45:23 51°14.158 2°55.417 331 8.8 331 10.5
2009-12-08 08:45:29 51°14.171 2°55.406 330.5 8.7 330 10.8
2009-12-08 08:45:33 51°14.179 2°55.397 328.7 8.7 327 10.9
2009-12-08 08:45:38 51°14.188 2°55.386 325.5 8.7 324 11
2009-12-08 08:45:43 51°14.198 2°55.373 321.9 8.7 320 10.9
2009-12-08 08:45:48 51°14.207 2°55.361 318.7 8.7 318 10.7
2009-12-08 08:45:53 51°14.216 2°55.347 317.1 8.9 317 11.1
2009-12-08 08:45:58 51°14.225 2°55.333 315.5 9 315 11.1
2009-12-08 08:46:03 51°14.233 2°55.319 313.4 9.1 314 11.1
2009-12-08 08:46:08 51°14.242 2°55.303 311.8 9.4 312 11
2009-12-08 08:46:13 51°14.251 2°55.287 310.7 9.7 311 11
2009-12-08 08:46:18 51°14.26 2°55.27 309.2 9.9 309 10.8
2009-12-08 08:46:23 51°14.268 2°55.252 307.7 10.2 309 11
2009-12-08 08:46:29 51°14.28 2°55.232 308.4 10.3 311 11.1
2009-12-08 08:46:33 51°14.287 2°55.218 309.9 10.5 310 11
2009-12-08 08:46:38 51°14.296 2°55.2 310 10.5 310 11
2009-12-08 08:46:43 51°14.305 2°55.181 307.5 10.6 305 10.8
2009-12-08 08:46:48 51°14.313 2°55.161 305 10.7 305 10.9
2009-12-08 08:46:53 51°14.322 2°55.142 304.1 10.8 305 11
2009-12-08 08:46:58 51°14.331 2°55.123 304.4 10.8 306 11
2009-12-08 08:47:03 51°14.34 2°55.104 305.5 10.9 307 11.1
2009-12-08 08:47:08 51°14.349 2°55.084 305 10.9 305 10.8
2009-12-08 08:47:13 51°14.358 2°55.064 304.2 10.9 306 10.9
2009-12-08 08:47:18 51°14.367 2°55.045 304.9 11 307 11
2009-12-08 08:47:23 51°14.376 2°55.025 305.5 11 307 10.3
2009-12-08 08:47:28 51°14.385 2°55.006 305.2 11.1 307 10
2009-12-08 08:47:33 51°14.394 2°54.986 305 11 308 10.1
2009-12-08 08:47:38 51°14.404 2°54.968 307 10.9 311 10.5
2009-12-08 08:47:43 51°14.415 2°54.95 310.5 10.8 314 10.5
2009-12-08 08:47:48 51°14.425 2°54.934 313.5 10.7 315 10.6
2009-12-08 08:47:53 51°14.436 2°54.918 316.3 10.8 317 11
2009-12-08 08:47:58 51°14.448 2°54.902 318.5 10.8 319 10.5
2009-12-08 08:48:03 51°14.459 2°54.888 320.4 10.3 323 -999
2009-12-08 08:48:09 51°14.474 2°54.873 324.4 10.2 327 11
2009-12-08 08:48:14 51°14.486 2°54.861 326.9 10.2 329 10.4
2009-12-08 08:48:18 51°14.496 2°54.853 329.6 10.2 332 10.7
2009-12-08 08:48:23 51°14.509 2°54.843 333.7 10.4 336 11.4
2009-12-08 08:48:29 51°14.525 2°54.833 335.8 10.3 337 10.8
2009-12-08 08:48:33 51°14.535 2°54.824 336.3 10.6 335 10.8
2009-12-08 08:48:38 51°14.549 2°54.816 336.4 10.7 338 10.4
2009-12-08 08:48:43 51°14.563 2°54.808 338.3 10.6 341 10.1
2009-12-08 08:48:48 51°14.577 2°54.799 339.9 10.7 338 10.1
2009-12-08 08:48:53 51°14.59 2°54.789 338.5 10.7 335 10.1
2009-12-08 08:48:58 51°14.603 2°54.778 336.5 10.7 332 9.8
2009-12-08 08:49:03 51°14.616 2°54.767 334 10.7 332 9.7
2009-12-08 08:49:08 51°14.628 2°54.754 329.8 10.5 327 11
2009-12-08 08:49:13 51°14.64 2°54.741 327.1 10.4 326 10.4
2009-12-08 08:49:18 51°14.652 2°54.728 324.9 10.2 324 9.9
2009-12-08 08:49:23 51°14.663 2°54.714 323.9 10.5 324 10.4
2009-12-08 08:49:28 51°14.675 2°54.701 324.2 10.6 325 10.1
2009-12-08 08:49:33 51°14.688 2°54.687 324.5 10.6 326 10
2009-12-08 08:49:38 51°14.7 2°54.675 325.4 10.7 327 10.1
2009-12-08 08:49:44 51°14.715 2°54.661 326.7 10.4 330 -999
2009-12-08 08:49:49 51°14.728 2°54.65 328.3 10.4 330 10.7
2009-12-08 08:49:54 51°14.74 2°54.637 327 10.4 326 10.4
2009-12-08 08:49:58 51°14.75 2°54.628 327.1 10.5 332 10.4
2009-12-08 08:50:03 51°14.762 2°54.616 328.2 10.6 328 10.3
2009-12-08 08:50:09 51°14.778 2°54.602 327.8 10.5 331 10.5
2009-12-08 08:50:13 51°14.788 2°54.593 328.2 10.6 331 10.6
2009-12-08 08:50:18 51°14.801 2°54.58 328.5 10.6 330 9.8
2009-12-08 08:50:22 51°14.811 2°54.572 328.9 10.5 330 10
2009-12-08 08:50:28 51°14.826 2°54.557 328.6 10.6 328 9.8
2009-12-08 08:50:33 51°14.838 2°54.545 328.6 10.7 330 10.1
2009-12-08 08:50:38 51°14.851 2°54.533 328.7 10.7 329 10.3
2009-12-08 08:50:43 51°14.864 2°54.521 329.3 10.8 331 10.3
2009-12-08 08:50:48 51°14.877 2°54.509 329.1 10.7 329 9.6
2009-12-08 08:50:53 51°14.89 2°54.497 328.9 10.5 330 10.3
2009-12-08 08:50:58 51°14.902 2°54.486 329.5 10.4 329 10.6
2009-12-08 08:51:03 51°14.915 2°54.474 329.1 10.6 330 10.1
2009-12-08 08:51:08 51°14.928 2°54.462 329 10.5 331 9.4
2009-12-08 08:51:14 51°14.943 2°54.449 329.3 10.1 330 9.2
2009-12-08 08:51:18 51°14.953 2°54.441 330.6 10.4 331 9.7
2009-12-08 08:51:23 51°14.965 2°54.428 328.9 10.5 327 9.5
2009-12-08 08:51:28 51°14.978 2°54.417 329.5 10.4 332 10.4
2009-12-08 08:51:33 51°14.99 2°54.406 329.7 10.5 330 11
2009-12-08 08:51:38 51°15.003 2°54.394 329.1 10.7 332 10.6
2009-12-08 08:51:43 51°15.016 2°54.382 329.3 10.7 330 10.1
2009-12-08 08:51:48 51°15.029 2°54.371 329.6 10.6 330 10.1
2009-12-08 08:51:53 51°15.041 2°54.358 328.9 10.6 330 10.7
2009-12-08 08:51:58 51°15.054 2°54.346 329.3 10.7 329 10.9
2009-12-08 08:52:03 51°15.067 2°54.335 329.1 10.8 331 11
2009-12-08 08:52:08 51°15.08 2°54.322 328.5 10.7 328 10.3
2009-12-08 08:52:13 51°15.093 2°54.311 329.5 10.6 331 10.1
2009-12-08 08:52:18 51°15.105 2°54.3 329.6 10.5 331 11.4
2009-12-08 08:52:24 51°15.121 2°54.288 329.8 9.9 334 -999
2009-12-08 08:52:29 51°15.133 2°54.279 332 9.7 336 -999
2009-12-08 08:52:35 51°15.147 2°54.266 329.1 9.8 329 -999
2009-12-08 08:52:41 51°15.162 2°54.254 330 9.9 334 -999
2009-12-08 08:52:46 51°15.174 2°54.243 329.6 9.7 330 11
2009-12-08 08:52:51 51°15.186 2°54.233 329.7 9.7 333 11.2
2009-12-08 08:52:56 51°15.198 2°54.222 329.8 9.8 330 10.1
2009-12-08 08:53:01 51°15.209 2°54.213 328.9 9.4 332 -999
2009-12-08 08:53:06 51°15.221 2°54.201 329.4 9.7 328 10.6
2009-12-08 08:53:12 51°15.235 2°54.188 328.1 9.9 330 10.7
2009-12-08 08:53:17 51°15.248 2°54.177 328 10.2 332 10.7
2009-12-08 08:53:22 51°15.26 2°54.165 329 10.2 329 10.3
2009-12-08 08:53:26 51°15.27 2°54.156 328.1 10.4 329 11.3
2009-12-08 08:53:31 51°15.282 2°54.144 328.1 10.6 331 10.7
2009-12-08 08:53:36 51°15.295 2°54.131 329.1 10.6 327 11.1
2009-12-08 08:53:41 51°15.307 2°54.119 328.2 10.7 328 11.3
2009-12-08 08:53:46 51°15.32 2°54.107 327.2 10.8 329 11.1
2009-12-08 08:53:50 51°15.33 2°54.097 328.2 10.8 329 11.1
2009-12-08 08:53:55 51°15.343 2°54.084 328.6 10.9 327 10.8
2009-12-08 08:54:00 51°15.356 2°54.071 328.1 10.9 329 10.9
2009-12-08 08:54:05 51°15.369 2°54.059 328.2 10.8 330 11
2009-12-08 08:54:10 51°15.382 2°54.047 328.5 10.9 329 10.8
2009-12-08 08:54:14 51°15.392 2°54.037 329.1 10.4 329 10.5
2009-12-08 08:54:20 51°15.407 2°54.023 326.8 10.4 329 10.6
2009-12-08 08:54:25 51°15.419 2°54.01 327.8 10.5 327 10.9
2009-12-08 08:54:30 51°15.431 2°53.997 326.6 10.7 326 11.4
2009-12-08 08:54:35 51°15.443 2°53.985 326.8 10.6 327 11.1
2009-12-08 08:54:40 51°15.456 2°53.972 326.7 10.6 328 11.3
2009-12-08 08:54:45 51°15.468 2°53.96 327.1 10.5 328 10.8
2009-12-08 08:54:49 51°15.479 2°53.951 328.2 10.5 329 11.6
2009-12-08 08:54:54 51°15.491 2°53.938 327.2 10.5 327 11
2009-12-08 08:54:59 51°15.504 2°53.926 327.4 10.7 329 11.2
2009-12-08 08:55:04 51°15.516 2°53.913 327.5 10.8 328 11
2009-12-08 08:55:09 51°15.528 2°53.901 327.7 10.6 329 10.7
2009-12-08 08:55:14 51°15.541 2°53.89 328.2 10.6 330 11.7
2009-12-08 08:55:18 51°15.551 2°53.88 328.2 10.5 329 10.6
2009-12-08 08:55:23 51°15.563 2°53.868 328.6 10.4 328 10.5
2009-12-08 08:55:28 51°15.576 2°53.856 328 10.5 328 11.9
2009-12-08 08:55:33 51°15.588 2°53.845 328.4 10.2 333 11.8
2009-12-08 08:55:39 51°15.602 2°53.831 328.5 9.9 328 -999
2009-12-08 08:55:45 51°15.617 2°53.818 327.9 10 330 -999
2009-12-08 08:55:50 51°15.629 2°53.805 328.3 10.2 328 10.6
2009-12-08 08:55:54 51°15.639 2°53.796 328 10.2 328 11.2
2009-12-08 08:55:59 51°15.651 2°53.785 328.3 10.3 329 11.3
2009-12-08 08:56:04 51°15.663 2°53.772 327.9 10.4 326 11.2
2009-12-08 08:56:09 51°15.675 2°53.76 327.8 10.4 328 11.1
2009-12-08 08:56:14 51°15.688 2°53.748 327.5 10.3 329 12.1
2009-12-08 08:56:19 51°15.7 2°53.736 328.6 10.5 329 11.9
2009-12-08 08:56:23 51°15.71 2°53.726 328.7 10.5 329 11.3
2009-12-08 08:56:28 51°15.723 2°53.713 327.4 10.6 326 11.2
2009-12-08 08:56:33 51°15.735 2°53.701 328 10.5 329 11.5
2009-12-08 08:56:38 51°15.748 2°53.688 328.9 10.6 328 12.2
2009-12-08 08:56:42 51°15.758 2°53.679 328.6 10.8 330 10.9
2009-12-08 08:56:48 51°15.773 2°53.664 328.9 10.4 330 10.8
2009-12-08 08:56:54 51°15.788 2°53.651 329 10.2 330 11.1
2009-12-08 08:56:58 51°15.797 2°53.641 328.9 10.4 329 12.1
2009-12-08 08:57:03 51°15.809 2°53.629 328.1 10.3 328 11.5
2009-12-08 08:57:08 51°15.822 2°53.616 327.8 10.6 326 11.8
2009-12-08 08:57:13 51°15.834 2°53.604 328.1 10.5 329 11.2
2009-12-08 08:57:18 51°15.846 2°53.593 327.9 10.4 329 -999
2009-12-08 08:57:23 51°15.859 2°53.581 328.9 10.4 329 12
2009-12-08 08:57:28 51°15.871 2°53.569 328.8 10.4 328 11.8
2009-12-08 08:57:33 51°15.884 2°53.557 328.6 10.5 329 -999
2009-12-08 08:57:38 51°15.897 2°53.546 329.7 10.4 332 12
2009-12-08 08:57:43 51°15.909 2°53.533 328.5 10.4 328 12.9
2009-12-08 08:57:48 51°15.922 2°53.522 329.1 10.6 331 12.6
2009-12-08 08:57:54 51°15.936 2°53.508 328.1 10.4 328 12.6
2009-12-08 08:57:59 51°15.948 2°53.498 329.2 10 333 12.1
2009-12-08 08:58:04 51°15.96 2°53.484 329.6 10.2 327 11.9
2009-12-08 08:58:09 51°15.972 2°53.473 328.5 10.3 330 12.1
2009-12-08 08:58:13 51°15.983 2°53.464 329 10.5 331 12.1
2009-12-08 08:58:18 51°15.994 2°53.451 328.1 10.3 326 11.6
2009-12-08 08:58:23 51°16.007 2°53.439 328.2 10.5 330 12
2009-12-08 08:58:28 51°16.019 2°53.427 328.8 10.7 328 12.1
2009-12-08 08:58:33 51°16.032 2°53.415 328.4 10.7 328 11.4
2009-12-08 08:58:38 51°16.045 2°53.402 327.6 10.7 328 11.6
2009-12-08 08:58:42 51°16.055 2°53.393 329.4 10.7 329 11.5
2009-12-08 08:58:48 51°16.069 2°53.377 327.6 10.7 326 11.6
2009-12-08 08:58:53 51°16.082 2°53.364 328 10.7 329 12.4
2009-12-08 08:58:58 51°16.095 2°53.352 328.5 10.9 328 12
2009-12-08 08:59:03 51°16.108 2°53.34 328.7 10.7 329 12.4
2009-12-08 08:59:08 51°16.121 2°53.329 331.1 10.8 333 12.3
2009-12-08 08:59:13 51°16.135 2°53.319 331.7 10.7 333 11.5
2009-12-08 08:59:18 51°16.147 2°53.307 330.7 10.8 330 11.6
2009-12-08 08:59:23 51°16.161 2°53.297 332.9 10.7 336 12.3
2009-12-08 08:59:28 51°16.174 2°53.285 332.7 10.8 331 12
2009-12-08 08:59:33 51°16.187 2°53.274 332.8 10.8 333 11.9
2009-12-08 08:59:38 51°16.201 2°53.264 333.6 11 335 12
2009-12-08 08:59:42 51°16.212 2°53.255 334.2 10.8 332 11.4
2009-12-08 08:59:48 51°16.228 2°53.244 335.4 10.4 337 12.6
2009-12-08 08:59:53 51°16.241 2°53.235 335.7 10.5 336 -999
2009-12-08 08:59:59 51°16.257 2°53.224 335.9 10.4 335 12.3
2009-12-08 09:00:03 51°16.268 2°53.216 335.2 10.4 334 12.6
2009-12-08 09:00:09 51°16.284 2°53.205 336.7 10.5 337 12.6
2009-12-08 09:00:13 51°16.294 2°53.195 335.4 10.7 332 11.9
2009-12-08 09:00:18 51°16.308 2°53.186 335.2 10.5 335 11.4
2009-12-08 09:00:23 51°16.321 2°53.177 336.1 10.4 336 12.1
2009-12-08 09:00:28 51°16.334 2°53.166 336.6 10.7 332 12.2
2009-12-08 09:00:33 51°16.348 2°53.156 334.7 10.7 335 11.9
2009-12-08 09:00:38 51°16.362 2°53.146 335.4 10.8 336 12.1
2009-12-08 09:00:43 51°16.375 2°53.136 335.5 10.8 333 12.5
2009-12-08 09:00:48 51°16.389 2°53.127 335.4 10.9 338 12.8
2009-12-08 09:00:53 51°16.403 2°53.117 335.5 10.9 335 12.5
2009-12-08 09:00:58 51°16.416 2°53.107 335.4 10.7 337 12.1
2009-12-08 09:01:03 51°16.43 2°53.098 336.8 10.8 337 12.1
2009-12-08 09:01:08 51°16.443 2°53.088 336.1 10.6 336 12.5
2009-12-08 09:01:13 51°16.457 2°53.079 336.5 10.7 339 12.9
2009-12-08 09:01:18 51°16.471 2°53.07 336.9 10.5 336 13
2009-12-08 09:01:22 51°16.482 2°53.062 334.3 10.7 336 11.8
2009-12-08 09:01:28 51°16.498 2°53.052 337.1 10.6 338 12
2009-12-08 09:01:33 51°16.512 2°53.041 336.1 10.8 333 11.6
2009-12-08 09:01:38 51°16.525 2°53.031 335.3 10.8 335 12
2009-12-08 09:01:43 51°16.539 2°53.022 336.5 10.7 339 11.9
2009-12-08 09:01:48 51°16.553 2°53.012 336.7 10.8 334 12.3
2009-12-08 09:01:53 51°16.567 2°53.002 335.8 10.9 338 11.8
2009-12-08 09:01:58 51°16.58 2°52.992 336 10.8 335 11.7
2009-12-08 09:02:03 51°16.594 2°52.982 335 10.9 335 12.1
2009-12-08 09:02:08 51°16.608 2°52.973 335.7 11 336 11.7
2009-12-08 09:02:13 51°16.622 2°52.962 334.8 11 335 11.1
2009-12-08 09:02:18 51°16.635 2°52.953 335.1 10.8 336 11.1
2009-12-08 09:02:22 51°16.646 2°52.944 334.9 10.7 335 11.9
2009-12-08 09:02:28 51°16.662 2°52.933 336 10.7 337 11.7
2009-12-08 09:02:33 51°16.676 2°52.923 335.4 10.8 335 12
2009-12-08 09:02:38 51°16.69 2°52.914 335.5 10.9 337 11.2
2009-12-08 09:02:42 51°16.701 2°52.906 335.5 10.5 336 10.8
2009-12-08 09:02:48 51°16.717 2°52.895 336.2 10.6 338 11.7
2009-12-08 09:02:53 51°16.73 2°52.885 335.9 10.7 335 11.6
2009-12-08 09:02:58 51°16.743 2°52.875 335.1 10.7 335 10.7
2009-12-08 09:03:03 51°16.757 2°52.865 335.6 10.7 334 10.4
2009-12-08 09:03:08 51°16.77 2°52.855 335.1 10.6 336 10.2
2009-12-08 09:03:13 51°16.784 2°52.847 336 10.6 339 10.4
2009-12-08 09:03:18 51°16.798 2°52.836 336.1 10.7 335 10.2
2009-12-08 09:03:23 51°16.811 2°52.827 335.3 10.6 337 10
2009-12-08 09:03:29 51°16.828 2°52.817 335.7 10.5 339 -999
2009-12-08 09:03:34 51°16.84 2°52.808 336.2 10.2 338 -999
2009-12-08 09:03:40 51°16.856 2°52.798 337.4 10.2 335 -999
2009-12-08 09:03:45 51°16.869 2°52.789 335.6 10.2 338 9.5
2009-12-08 09:03:50 51°16.882 2°52.78 336 10.1 338 9.2
2009-12-08 09:03:55 51°16.895 2°52.772 336.4 10.2 338 10.3
2009-12-08 09:04:00 51°16.908 2°52.763 336.9 10.3 337 9.8
2009-12-08 09:04:05 51°16.921 2°52.753 337 10.5 336 9.7
2009-12-08 09:04:10 51°16.934 2°52.744 335 10.4 335 9.7
2009-12-08 09:04:14 51°16.945 2°52.738 336.6 10.5 342 9.4
2009-12-08 09:04:19 51°16.959 2°52.729 338.7 10.5 337 9.1
2009-12-08 09:04:24 51°16.973 2°52.722 338 10.6 341 9.9
2009-12-08 09:04:29 51°16.987 2°52.715 340.7 10.5 344 10.5
2009-12-08 09:04:34 51°17 2°52.707 339.7 10.4 339 10.6
2009-12-08 09:04:39 51°17.014 2°52.701 340.8 10.4 344 9.8
2009-12-08 09:04:44 51°17.028 2°52.693 341 10.5 341 10.7
2009-12-08 09:04:49 51°17.042 2°52.686 341.3 10.7 342 10.6
2009-12-08 09:04:54 51°17.057 2°52.678 341.8 10.8 343 10.3
2009-12-08 09:04:58 51°17.068 2°52.672 341.3 10.8 341 9.6
2009-12-08 09:05:03 51°17.082 2°52.665 341 10.7 344 9.8
2009-12-08 09:05:08 51°17.097 2°52.658 342.5 10.9 341 9.9
2009-12-08 09:05:13 51°17.111 2°52.65 341.8 10.9 342 9.5
2009-12-08 09:05:18 51°17.125 2°52.643 342.3 11 343 9.7
2009-12-08 09:05:23 51°17.14 2°52.636 342.2 11 343 9.3
2009-12-08 09:05:28 51°17.154 2°52.629 342.1 10.7 343 9.1
2009-12-08 09:05:33 51°17.169 2°52.624 343.9 10.7 345 9.6
2009-12-08 09:05:38 51°17.184 2°52.616 342.9 10.9 342 9.9
2009-12-08 09:05:43 51°17.198 2°52.61 344.3 10.9 346 9.9
2009-12-08 09:05:48 51°17.213 2°52.604 345.3 11 345 10.2
2009-12-08 09:05:53 51°17.228 2°52.599 344.7 11 347 10.5
2009-12-08 09:05:58 51°17.243 2°52.593 345.3 10.9 347 9.6
2009-12-08 09:06:03 51°17.257 2°52.588 345.9 10.8 348 10.4
2009-12-08 09:06:09 51°17.274 2°52.582 347.7 10.8 347 9.8
2009-12-08 09:06:13 51°17.286 2°52.576 345.6 10.9 344 10.3
2009-12-08 09:06:18 51°17.301 2°52.573 347 11 352 9.8
2009-12-08 09:06:23 51°17.316 2°52.568 347.6 10.7 347 10.2
2009-12-08 09:06:28 51°17.33 2°52.563 347.7 10.9 351 10.5
2009-12-08 09:06:33 51°17.345 2°52.558 348.1 10.9 347 10.3
2009-12-08 09:06:38 51°17.36 2°52.553 347.7 10.9 347 10.1
2009-12-08 09:06:43 51°17.375 2°52.549 349 10.8 349 10.4
2009-12-08 09:06:48 51°17.39 2°52.545 348.3 10.9 352 11.2
2009-12-08 09:06:53 51°17.405 2°52.544 352.5 11 358 10.7
2009-12-08 09:06:58 51°17.42 2°52.54 352.2 11 351 10.3
2009-12-08 09:07:02 51°17.431 2°52.539 353.2 10.8 358 10.1
2009-12-08 09:07:08 51°17.449 2°52.538 356.3 10.9 359 10.2
2009-12-08 09:07:13 51°17.464 2°52.536 357.2 10.9 356 10.1
2009-12-08 09:07:18 51°17.479 2°52.536 357.9 10.9 358 10.6
2009-12-08 09:07:23 51°17.495 2°52.537 359.5 10.9 359 10.2
2009-12-08 09:07:28 51°17.51 2°52.536 358.9 11 -999 10.8
2009-12-08 09:07:33 51°17.525 2°52.536 359.6 11 -999 10.6
2009-12-08 09:07:38 51°17.541 2°52.536 0.7 11.1 -999 10.8
2009-12-08 09:07:43 51°17.556 2°52.535 359.7 11.3 359 10.8
2009-12-08 09:07:48 51°17.572 2°52.537 0.8 11.1 2 10.1
2009-12-08 09:07:53 51°17.587 2°52.535 359.8 11.1 358 10.1
2009-12-08 09:07:58 51°17.602 2°52.536 0.4 11.2 1 9.5
2009-12-08 09:08:02 51°17.614 2°52.538 2.2 10.9 2 10.5
2009-12-08 09:08:08 51°17.633 2°52.539 1.1 11 1 11
2009-12-08 09:08:13 51°17.648 2°52.537 359.3 11 358 10.3
2009-12-08 09:08:18 51°17.663 2°52.539 1.5 10.9 4 9.5
2009-12-08 09:08:23 51°17.678 2°52.539 1.1 10.9 -999 11
2009-12-08 09:08:28 51°17.694 2°52.539 0.8 10.9 -999 10.4
2009-12-08 09:08:33 51°17.709 2°52.54 1.6 11 2 10.3
2009-12-08 09:08:38 51°17.724 2°52.54 1.3 11.1 359 10.5
2009-12-08 09:08:43 51°17.74 2°52.541 0.8 11.1 1 10.3
2009-12-08 09:08:48 51°17.755 2°52.543 1.8 11 3 9.9
2009-12-08 09:08:53 51°17.77 2°52.542 0.8 10.8 2 10.5
2009-12-08 09:08:58 51°17.785 2°52.544 2.4 10.9 3 10.8
2009-12-08 09:09:03 51°17.8 2°52.544 2.3 10.9 1 10.2
2009-12-08 09:09:08 51°17.816 2°52.546 2.2 11.1 4 10.9
2009-12-08 09:09:13 51°17.831 2°52.548 2.7 10.8 4 10.4
2009-12-08 09:09:19 51°17.848 2°52.55 2.3 10.4 6 -999
2009-12-08 09:09:24 51°17.863 2°52.551 3.1 10.5 -999 11.6
2009-12-08 09:09:29 51°17.877 2°52.55 0.1 10.6 359 10.7
2009-12-08 09:09:34 51°17.892 2°52.551 359.3 10.6 -999 10.4
2009-12-08 09:09:39 51°17.907 2°52.55 -999 10.6 358 10.7
2009-12-08 09:09:44 51°17.922 2°52.55 359.2 10.7 -999 10.6
2009-12-08 09:09:49 51°17.937 2°52.549 1.6 10.8 359 10.7
2009-12-08 09:09:53 51°17.949 2°52.548 357.8 10.9 358 11
2009-12-08 09:09:58 51°17.964 2°52.549 358.4 10.9 1 10.3
2009-12-08 09:10:03 51°17.979 2°52.548 359.8 10.9 357 10.6
2009-12-08 09:10:08 51°17.994 2°52.548 357.9 10.9 1 11
2009-12-08 09:10:13 51°18.009 2°52.547 359.3 10.9 359 11.3
2009-12-08 09:10:18 51°18.024 2°52.548 358.4 10.7 1 11.3
2009-12-08 09:10:22 51°18.036 2°52.548 359.1 10.9 359 10.6
2009-12-08 09:10:28 51°18.054 2°52.55 358.6 11 6 10.7
2009-12-08 09:10:33 51°18.069 2°52.549 0.8 10.5 358 10.1
2009-12-08 09:10:38 51°18.083 2°52.55 1.5 10.5 1 11.1
2009-12-08 09:10:43 51°18.098 2°52.551 1.6 10.4 -999 10.6
2009-12-08 09:10:49 51°18.115 2°52.552 359.6 10.4 3 -999
2009-12-08 09:10:53 51°18.127 2°52.552 0.8 10.6 359 10.8
2009-12-08 09:10:58 51°18.141 2°52.554 0.3 10.7 4 10.2
2009-12-08 09:11:03 51°18.156 2°52.552 359.7 10.4 358 10.4
2009-12-08 09:11:08 51°18.171 2°52.555 1.6 10.7 3 11.1
2009-12-08 09:11:13 51°18.185 2°52.551 357.1 10.6 353 10.5
2009-12-08 09:11:18 51°18.2 2°52.554 359.6 10.8 5 11.1
2009-12-08 09:11:22 51°18.212 2°52.551 358.8 10.8 354 11.1
2009-12-08 09:11:28 51°18.23 2°52.552 359.6 10.9 2 11.4
2009-12-08 09:11:33 51°18.245 2°52.55 358.6 10.9 357 11
2009-12-08 09:11:38 51°18.261 2°52.552 359.4 11 2 11.6
2009-12-08 09:11:43 51°18.276 2°52.549 358.4 11 355 11.2
2009-12-08 09:11:48 51°18.291 2°52.551 359.6 11.1 3 10.6
2009-12-08 09:11:53 51°18.306 2°52.55 359.1 10.9 355 10.4
2009-12-08 09:11:58 51°18.321 2°52.55 357.9 10.8 1 11.5
2009-12-08 09:12:03 51°18.336 2°52.551 0.5 10.9 3 11.3
2009-12-08 09:12:08 51°18.351 2°52.549 358.9 10.7 357 11
2009-12-08 09:12:13 51°18.366 2°52.551 359.1 10.8 3 11.5
2009-12-08 09:12:18 51°18.381 2°52.55 359.4 10.7 359 11.5
2009-12-08 09:12:22 51°18.393 2°52.549 358.7 11.1 3 11.6
2009-12-08 09:12:28 51°18.411 2°52.549 358.6 10.9 356 11.2
2009-12-08 09:12:33 51°18.426 2°52.548 358.3 10.9 1 11.4
2009-12-08 09:12:38 51°18.441 2°52.551 1 10.9 3 11.6
2009-12-08 09:12:43 51°18.456 2°52.547 358.7 10.9 354 11
2009-12-08 09:12:48 51°18.472 2°52.55 1.1 10.9 4 10.7
2009-12-08 09:12:53 51°18.487 2°52.547 -999 10.9 356 11.3
2009-12-08 09:12:58 51°18.502 2°52.549 1.2 11 3 11.4
2009-12-08 09:13:03 51°18.518 2°52.547 358.9 11.1 357 11.5
2009-12-08 09:13:08 51°18.533 2°52.548 359.5 11.2 3 11.7
2009-12-08 09:13:13 51°18.548 2°52.546 359.9 11.2 356 11.3
2009-12-08 09:13:18 51°18.564 2°52.547 0.3 11.2 2 11.4
2009-12-08 09:13:23 51°18.579 2°52.546 359.4 11.1 357 11.6
2009-12-08 09:13:28 51°18.594 2°52.546 359.3 11.1 1 12.3
2009-12-08 09:13:33 51°18.61 2°52.544 358.4 11.1 356 11.8
2009-12-08 09:13:38 51°18.625 2°52.546 358.7 11.1 2 11
2009-12-08 09:13:44 51°18.643 2°52.545 357.3 10.8 358 11.5
2009-12-08 09:13:49 51°18.658 2°52.545 -999 10.8 359 11.8
2009-12-08 09:13:53 51°18.67 2°52.545 358.6 10.7 1 12.4
2009-12-08 09:13:58 51°18.685 2°52.545 359.7 10.7 -999 12.2
2009-12-08 09:14:03 51°18.7 2°52.543 359 10.8 358 12
2009-12-08 09:14:08 51°18.715 2°52.542 358.8 11 357 11.4
2009-12-08 09:14:13 51°18.73 2°52.543 359.4 10.9 -999 11
2009-12-08 09:14:18 51°18.745 2°52.542 359.3 10.7 356 11.7
2009-12-08 09:14:22 51°18.757 2°52.543 0.8 10.7 1 12.1
2009-12-08 09:14:28 51°18.775 2°52.542 359.4 10.6 358 12.9
2009-12-08 09:14:33 51°18.79 2°52.542 358.7 10.8 1 12.8
2009-12-08 09:14:38 51°18.805 2°52.543 0.8 10.9 2 13.1
2009-12-08 09:14:43 51°18.82 2°52.542 358 10.9 358 12.9
2009-12-08 09:14:48 51°18.835 2°52.543 359.7 10.8 4 12.3
2009-12-08 09:14:53 51°18.85 2°52.543 1 10.7 -999 12.3
2009-12-08 09:14:58 51°18.865 2°52.542 1 10.9 359 11.8
2009-12-08 09:15:03 51°18.88 2°52.543 0.6 10.9 1 11.8
2009-12-08 09:15:08 51°18.895 2°52.542 359.7 10.9 356 12.4
2009-12-08 09:15:13 51°18.911 2°52.543 359.3 11 3 12.3
2009-12-08 09:15:18 51°18.926 2°52.542 359.8 11 355 12.3
2009-12-08 09:15:23 51°18.941 2°52.542 358.8 11 2 12.8
2009-12-08 09:15:29 51°18.959 2°52.54 359.4 11 358 12.8
2009-12-08 09:15:33 51°18.972 2°52.54 359.8 11.2 359 13.2
2009-12-08 09:15:38 51°18.987 2°52.538 357.9 11 357 13.1
2009-12-08 09:15:43 51°19.002 2°52.539 0.2 11.2 -999 12.9
2009-12-08 09:15:48 51°19.018 2°52.538 358.8 11.1 357 12.9
2009-12-08 09:15:53 51°19.033 2°52.536 358.2 11.2 357 13.3
2009-12-08 09:15:58 51°19.048 2°52.537 359.7 11.2 1 13.5
2009-12-08 09:16:03 51°19.064 2°52.536 359.3 11.3 358 13.7
2009-12-08 09:16:08 51°19.08 2°52.535 359 11.3 358 13.1
2009-12-08 09:16:13 51°19.095 2°52.535 358.1 11.1 1 12.7
2009-12-08 09:16:18 51°19.11 2°52.535 -999 11.1 -999 12.7
2009-12-08 09:16:23 51°19.125 2°52.534 359.2 10.7 357 13.2
2009-12-08 09:16:28 51°19.14 2°52.536 0.6 10.7 2 14
2009-12-08 09:16:33 51°19.155 2°52.533 357.9 11 355 14.4
2009-12-08 09:16:38 51°19.17 2°52.533 358.9 10.9 1 13.4
2009-12-08 09:16:43 51°19.185 2°52.534 359.7 10.7 1 13.2
2009-12-08 09:16:48 51°19.2 2°52.531 358.8 10.6 355 13
2009-12-08 09:16:53 51°19.214 2°52.533 0.8 10.7 3 13.9
2009-12-08 09:16:58 51°19.229 2°52.53 359 10.7 355 13.7
2009-12-08 09:17:03 51°19.244 2°52.532 0.2 10.7 3 13.5
2009-12-08 09:17:08 51°19.259 2°52.532 0.5 10.8 -999 14.3
2009-12-08 09:17:13 51°19.274 2°52.531 359.1 11 358 14.3
2009-12-08 09:17:18 51°19.289 2°52.532 359.9 11 2 14.3
2009-12-08 09:17:23 51°19.304 2°52.532 -999 10.9 -999 15.3
2009-12-08 09:17:28 51°19.319 2°52.532 0.1 11 2 14.8
2009-12-08 09:17:33 51°19.335 2°52.532 1 11 359 14.8
2009-12-08 09:17:38 51°19.35 2°52.53 358.6 11 358 14.6
2009-12-08 09:17:42 51°19.362 2°52.53 359.4 11 -999 14.6
2009-12-08 09:17:48 51°19.38 2°52.529 359.1 11.2 358 14.8
2009-12-08 09:17:53 51°19.396 2°52.529 359.2 11.1 358 14.1
2009-12-08 09:17:58 51°19.411 2°52.529 359.4 11.1 1 14.5
2009-12-08 09:18:03 51°19.426 2°52.527 358.7 11 357 14.7
2009-12-08 09:18:08 51°19.441 2°52.527 358.2 10.9 359 14.7
2009-12-08 09:18:13 51°19.457 2°52.526 359.4 11 358 15.5
2009-12-08 09:18:18 51°19.472 2°52.525 359.2 11 359 15.5
2009-12-08 09:18:23 51°19.487 2°52.527 359.4 11.2 3 16.4
2009-12-08 09:18:29 51°19.505 2°52.528 359 10.6 4 -999
2009-12-08 09:18:34 51°19.519 2°52.527 1.3 10.5 359 -999
2009-12-08 09:18:40 51°19.537 2°52.526 358.4 10.6 358 15.5
2009-12-08 09:18:45 51°19.552 2°52.526 359.2 10.6 -999 14.6
2009-12-08 09:18:50 51°19.567 2°52.526 -999 10.7 359 15.2
2009-12-08 09:18:54 51°19.578 2°52.524 359.4 10.8 356 15.3
2009-12-08 09:18:59 51°19.594 2°52.524 358.5 10.8 1 15.6
2009-12-08 09:19:04 51°19.608 2°52.523 358.6 10.8 357 14.9
2009-12-08 09:19:09 51°19.624 2°52.523 358.7 10.8 1 15.3
2009-12-08 09:19:14 51°19.639 2°52.521 359.4 10.8 357 15.8
2009-12-08 09:19:18 51°19.651 2°52.521 359.6 11 -999 15.9
2009-12-08 09:19:23 51°19.666 2°52.522 359.2 11.2 2 16.7
2009-12-08 09:19:28 51°19.682 2°52.52 358.6 11 359 16.1
2009-12-08 09:19:33 51°19.697 2°52.521 359.6 11.1 1 16.5
2009-12-08 09:19:38 51°19.712 2°52.519 357.6 10.8 356 16.3
2009-12-08 09:19:43 51°19.727 2°52.52 0.4 11 3 15.8
2009-12-08 09:19:48 51°19.742 2°52.518 358.6 10.9 355 15.5
2009-12-08 09:19:53 51°19.757 2°52.518 357.4 11 1 16.3
2009-12-08 09:19:58 51°19.772 2°52.518 0.2 10.9 2 15.4
2009-12-08 09:20:02 51°19.784 2°52.517 359.3 10.9 357 15.4
2009-12-08 09:20:08 51°19.803 2°52.518 0.8 10.9 1 15.2
2009-12-08 09:20:13 51°19.817 2°52.516 358.3 10.8 357 16
2009-12-08 09:20:18 51°19.832 2°52.518 1.2 10.9 3 16.4
2009-12-08 09:20:23 51°19.847 2°52.514 358.3 11 353 16.4
2009-12-08 09:20:28 51°19.863 2°52.516 359.6 11.1 4 16.1
2009-12-08 09:20:33 51°19.878 2°52.513 359.3 10.8 353 15.9
2009-12-08 09:20:38 51°19.893 2°52.512 358.6 10.9 357 16.2
2009-12-08 09:20:43 51°19.908 2°52.513 0.7 10.9 358 15.6
2009-12-08 09:20:48 51°19.923 2°52.511 356.9 10.7 356 15.9
2009-12-08 09:20:53 51°19.938 2°52.512 0.3 10.8 3 16.2
2009-12-08 09:20:58 51°19.953 2°52.51 358.7 10.7 356 16.7
2009-12-08 09:21:03 51°19.968 2°52.51 359.4 10.7 2 17.1
2009-12-08 09:21:09 51°19.986 2°52.509 -999 10.5 359 17.3
2009-12-08 09:21:13 51°19.997 2°52.506 356.5 10.4 352 17.3
2009-12-08 09:21:18 51°20.01 2°52.5 348.8 10.3 344 16.3
2009-12-08 09:21:23 51°20.024 2°52.494 343.9 10.1 342 15.5
2009-12-08 09:21:29 51°20.039 2°52.483 340.9 10.2 339 16.2
2009-12-08 09:21:34 51°20.053 2°52.476 339.8 10.5 342 17
2009-12-08 09:21:38 51°20.063 2°52.467 336.4 10.4 334 16.3
2009-12-08 09:21:43 51°20.076 2°52.459 336.4 10.1 339 17.2
2009-12-08 09:21:49 51°20.092 2°52.448 334.1 10 337 -999
2009-12-08 09:21:54 51°20.104 2°52.44 335.3 9.8 337 -999
2009-12-08 09:22:00 51°20.118 2°52.426 334.1 9.8 328 -999
2009-12-08 09:22:05 51°20.13 2°52.415 331 9.9 331 15.8
2009-12-08 09:22:10 51°20.141 2°52.403 328.2 9.8 325 16.4
2009-12-08 09:22:15 51°20.151 2°52.388 324 9.9 320 16.4
2009-12-08 09:22:20 51°20.162 2°52.374 321.4 10 320 15.9
2009-12-08 09:22:25 51°20.172 2°52.36 319.4 10.1 318 15.7
2009-12-08 09:22:30 51°20.182 2°52.345 317.6 9.7 317 -999
2009-12-08 09:22:36 51°20.193 2°52.327 316.2 9.7 316 15.3
2009-12-08 09:22:41 51°20.202 2°52.312 314 9.4 313 16
2009-12-08 09:22:46 51°20.212 2°52.297 312.9 9.7 316 -999
2009-12-08 09:22:51 51°20.221 2°52.281 314 9.9 314 16.1
2009-12-08 09:22:56 51°20.23 2°52.265 313.6 9.9 313 16.6
2009-12-08 09:23:01 51°20.24 2°52.249 312.3 9.9 312 16.2
2009-12-08 09:23:06 51°20.249 2°52.232 311.2 9.8 311 15.8
2009-12-08 09:23:10 51°20.256 2°52.219 310.7 10 312 14.6
2009-12-08 09:23:15 51°20.266 2°52.202 311.5 10.1 312 14.8
2009-12-08 09:23:20 51°20.275 2°52.185 311.2 9.9 311 15.8
2009-12-08 09:23:25 51°20.284 2°52.169 310.5 9.9 311 14.8
2009-12-08 09:23:30 51°20.293 2°52.152 310.3 9.9 310 13.7
2009-12-08 09:23:35 51°20.302 2°52.135 310 10.1 309 14.7
2009-12-08 09:23:40 51°20.311 2°52.118 310.8 10.2 312 15.2
2009-12-08 09:23:45 51°20.32 2°52.101 310.3 10.2 309 14.4
2009-12-08 09:23:49 51°20.328 2°52.086 309.9 10.3 310 14.4
2009-12-08 09:23:54 51°20.337 2°52.07 309.4 10.2 310 13.9
2009-12-08 09:23:59 51°20.345 2°52.053 310.5 9.8 310 13.9
2009-12-08 09:24:05 51°20.356 2°52.033 310 10 309 14.6
2009-12-08 09:24:10 51°20.365 2°52.015 308.8 10.2 309 14.7
2009-12-08 09:24:15 51°20.375 2°51.998 309.6 10.4 311 14.7
2009-12-08 09:24:20 51°20.384 2°51.981 310 10.5 311 14.3
2009-12-08 09:24:24 51°20.391 2°51.966 309.8 10.5 309 13.4
2009-12-08 09:24:29 51°20.401 2°51.948 309.3 10.4 311 12.4
2009-12-08 09:24:34 51°20.411 2°51.931 309.6 10.4 310 13.4
2009-12-08 09:24:39 51°20.42 2°51.913 310.7 10.5 311 13.7
2009-12-08 09:24:44 51°20.43 2°51.896 311.5 10.6 313 13.6
2009-12-08 09:24:49 51°20.441 2°51.879 313.2 10.7 314 13.9
2009-12-08 09:24:54 51°20.451 2°51.863 314.6 10.7 317 13.3
2009-12-08 09:24:58 51°20.46 2°51.85 316 10.6 317 13.5
2009-12-08 09:25:03 51°20.471 2°51.834 316.6 10.5 316 14.1
2009-12-08 09:25:08 51°20.482 2°51.818 318.2 10.7 319 14.1
2009-12-08 09:25:13 51°20.493 2°51.802 317.5 10.8 317 13.9
2009-12-08 09:25:18 51°20.504 2°51.787 318.5 10.7 320 13.1
2009-12-08 09:25:23 51°20.515 2°51.771 319.1 10.7 318 13.5
2009-12-08 09:25:28 51°20.526 2°51.756 319.2 10.8 320 13.6
2009-12-08 09:25:33 51°20.538 2°51.741 319.2 10.6 321 13.5
2009-12-08 09:25:38 51°20.549 2°51.725 320.3 10.8 320 13.7
2009-12-08 09:25:43 51°20.56 2°51.711 319.9 10.3 322 13.1
2009-12-08 09:25:48 51°20.571 2°51.697 320.4 10.2 320 14.2
2009-12-08 09:25:53 51°20.582 2°51.683 320.8 10.2 320 14.3
2009-12-08 09:25:58 51°20.593 2°51.668 320.9 10.4 319 14.4
2009-12-08 09:26:03 51°20.604 2°51.653 320.4 10.3 320 14.9
2009-12-08 09:26:08 51°20.615 2°51.639 320.3 10.4 323 15.6
2009-12-08 09:26:13 51°20.627 2°51.624 321.5 10.6 321 15
2009-12-08 09:26:18 51°20.639 2°51.612 323.9 10.6 326 14.4
2009-12-08 09:26:23 51°20.65 2°51.598 324.8 10.3 323 14.6
2009-12-08 09:26:29 51°20.665 2°51.583 326.8 10.5 327 15.1
2009-12-08 09:26:33 51°20.676 2°51.573 328.2 10.6 330 15.2
2009-12-08 09:26:38 51°20.688 2°51.56 328.3 10.8 326 14.8
2009-12-08 09:26:43 51°20.701 2°51.549 329.7 10.7 332 15
2009-12-08 09:26:48 51°20.714 2°51.537 331.2 10.8 331 15.7
2009-12-08 09:26:53 51°20.727 2°51.525 331.7 10.9 332 15.7
2009-12-08 09:26:58 51°20.741 2°51.516 333.8 10.8 336 15.4
2009-12-08 09:27:03 51°20.754 2°51.504 333.6 10.7 332 16.3
2009-12-08 09:27:08 51°20.767 2°51.494 334.3 10.7 335 16.5
2009-12-08 09:27:13 51°20.781 2°51.485 335.2 10.8 337 17.3
2009-12-08 09:27:18 51°20.795 2°51.475 335.8 10.7 336 17.1
2009-12-08 09:27:22 51°20.805 2°51.467 335.8 10.8 337 17.3
2009-12-08 09:27:28 51°20.822 2°51.456 335.2 10.7 336 16.6
2009-12-08 09:27:33 51°20.835 2°51.447 336.6 10.6 338 17
2009-12-08 09:27:38 51°20.848 2°51.437 336.5 10.4 335 16.9
2009-12-08 09:27:43 51°20.861 2°51.426 335 10.5 333 17.5
2009-12-08 09:27:48 51°20.875 2°51.417 336.1 10.6 337 18
2009-12-08 09:27:53 51°20.888 2°51.407 336.1 10.7 336 18.1
2009-12-08 09:27:58 51°20.901 2°51.396 335.4 10.7 334 18.2
2009-12-08 09:28:02 51°20.912 2°51.389 335.9 10.7 337 18.1
2009-12-08 09:28:08 51°20.928 2°51.377 336.2 10.4 335 18.6
2009-12-08 09:28:13 51°20.942 2°51.369 336.2 10.4 338 19.2
2009-12-08 09:28:18 51°20.956 2°51.362 341.5 10.3 344 18.5
2009-12-08 09:28:23 51°20.97 2°51.356 343.7 10.3 343 19
2009-12-08 09:28:28 51°20.984 2°51.349 344.1 10.6 344 19.2
2009-12-08 09:28:33 51°20.998 2°51.344 346.2 10.4 348 18.8
2009-12-08 09:28:38 51°21.012 2°51.338 347.7 10.4 347 19.5
2009-12-08 09:28:43 51°21.026 2°51.334 348.2 10.3 349 20.1
2009-12-08 09:28:48 51°21.04 2°51.329 349.1 10.4 350 20.7
2009-12-08 09:28:53 51°21.055 2°51.325 349.4 10.4 347 20.5
2009-12-08 09:28:58 51°21.069 2°51.321 350.3 10.3 350 20.8
2009-12-08 09:29:03 51°21.084 2°51.317 350.1 10.6 350 20.8
2009-12-08 09:29:08 51°21.098 2°51.312 351.1 10.6 351 20.6
2009-12-08 09:29:13 51°21.112 2°51.309 351.8 10.7 351 21.4
2009-12-08 09:29:18 51°21.127 2°51.305 351.7 10.7 351 20.9
2009-12-08 09:29:23 51°21.142 2°51.301 351.4 10.6 349 20.8
2009-12-08 09:29:28 51°21.156 2°51.297 351.7 10.5 351 21.6
2009-12-08 09:29:33 51°21.171 2°51.293 351.9 10.6 350 21.8
2009-12-08 09:29:38 51°21.186 2°51.29 352.3 10.7 352 21.5
2009-12-08 09:29:43 51°21.2 2°51.286 351.9 10.7 351 21.3
2009-12-08 09:29:48 51°21.215 2°51.283 352.7 10.7 351 21.6
2009-12-08 09:29:53 51°21.23 2°51.28 352.6 10.8 352 22.1
2009-12-08 09:29:58 51°21.244 2°51.275 351.9 10.7 351 22.2
2009-12-08 09:30:02 51°21.256 2°51.272 352 10.9 351 22.3
2009-12-08 09:30:08 51°21.274 2°51.267 351.7 10.7 350 21.5
2009-12-08 09:30:13 51°21.288 2°51.265 352.1 10.2 353 22.3
2009-12-08 09:30:18 51°21.302 2°51.263 353.4 10.4 354 -999
2009-12-08 09:30:23 51°21.316 2°51.262 354.4 10.5 359 23.4
2009-12-08 09:30:28 51°21.331 2°51.259 356.6 10.5 355 22.9
2009-12-08 09:30:33 51°21.346 2°51.258 357.1 10.5 356 23.3
2009-12-08 09:30:38 51°21.36 2°51.257 357.9 10.5 357 23.2
2009-12-08 09:30:43 51°21.375 2°51.256 359.8 10.6 357 23.2
2009-12-08 09:30:48 51°21.39 2°51.255 359.4 10.6 358 23.6
2009-12-08 09:30:53 51°21.405 2°51.255 -999 10.7 -999 23.2
2009-12-08 09:30:58 51°21.42 2°51.254 0.7 10.7 357 22.9
2009-12-08 09:31:03 51°21.434 2°51.254 0.8 10.5 359 22.8
2009-12-08 09:31:08 51°21.449 2°51.255 3 10.4 1 23.3
2009-12-08 09:31:13 51°21.463 2°51.254 0.8 10.3 358 23.9
2009-12-08 09:31:18 51°21.478 2°51.255 3.1 10.4 1 23.6
2009-12-08 09:31:23 51°21.492 2°51.257 3.8 10.5 2 23
2009-12-08 09:31:28 51°21.507 2°51.256 1.5 10.3 357 22.8
2009-12-08 09:31:33 51°21.521 2°51.258 4 10.4 3 23
2009-12-08 09:31:38 51°21.535 2°51.258 2.6 10.2 -999 23.6
2009-12-08 09:31:43 51°21.55 2°51.258 2.2 10.4 1 24.3
2009-12-08 09:31:48 51°21.564 2°51.259 3.7 10.4 5 23.9
2009-12-08 09:31:53 51°21.579 2°51.259 2.9 10.3 -999 24.1
2009-12-08 09:31:58 51°21.593 2°51.26 1.5 10.3 2 24.4
2009-12-08 09:32:03 51°21.607 2°51.26 0.9 10.4 -999 23.9
2009-12-08 09:32:08 51°21.622 2°51.259 0.2 10.5 356 23.8
2009-12-08 09:32:13 51°21.636 2°51.26 0.9 10.6 2 24.2
2009-12-08 09:32:18 51°21.651 2°51.259 1 10.5 -999 24.4
2009-12-08 09:32:22 51°21.663 2°51.258 0.4 10.4 -999 24.6
2009-12-08 09:32:28 51°21.68 2°51.259 1.7 10.5 -999 23.8
2009-12-08 09:32:33 51°21.695 2°51.259 1.1 10.6 -999 24.1
2009-12-08 09:32:38 51°21.71 2°51.26 0.6 10.7 2 24
2009-12-08 09:32:43 51°21.724 2°51.26 2 10.4 -999 23
2009-12-08 09:32:48 51°21.738 2°51.261 3 10.4 1 23.7
2009-12-08 09:32:53 51°21.753 2°51.261 1.5 10.6 -999 24.4
2009-12-08 09:32:58 51°21.767 2°51.26 0.6 10.6 357 23.9
2009-12-08 09:33:02 51°21.779 2°51.261 1.7 10.8 2 23.8
2009-12-08 09:33:08 51°21.797 2°51.261 1.8 10.9 1 24
2009-12-08 09:33:13 51°21.812 2°51.26 0.7 10.8 359 24.2
2009-12-08 09:33:18 51°21.827 2°51.261 1.1 10.6 2 24.7
2009-12-08 09:33:23 51°21.842 2°51.261 1.7 11 1 24.7
2009-12-08 09:33:28 51°21.857 2°51.26 0.3 10.8 358 23.4
2009-12-08 09:33:33 51°21.871 2°51.262 2 10.6 5 23.7
2009-12-08 09:33:38 51°21.886 2°51.261 1.6 10.5 359 24.9
2009-12-08 09:33:43 51°21.901 2°51.262 0.7 10.3 2 24.7
2009-12-08 09:33:48 51°21.915 2°51.262 1.6 10.6 3 25.1
2009-12-08 09:33:53 51°21.93 2°51.262 359.8 10.7 359 24.8
2009-12-08 09:33:58 51°21.944 2°51.264 0.8 10.5 4 23.5
2009-12-08 09:34:03 51°21.959 2°51.265 1.2 10.7 3 23.5
2009-12-08 09:34:08 51°21.973 2°51.268 6 10.4 7 22.6
2009-12-08 09:34:13 51°21.987 2°51.272 8 10.3 10 22.8
2009-12-08 09:34:18 51°22.001 2°51.278 12.4 10.5 14 23.3
2009-12-08 09:34:23 51°22.015 2°51.281 12.7 10.4 9 23.7
2009-12-08 09:34:28 51°22.029 2°51.288 14.7 10.5 17 23.5
2009-12-08 09:34:33 51°22.044 2°51.294 16.2 10.6 13 22.9
2009-12-08 09:34:38 51°22.058 2°51.301 17.2 10.6 16 23.3
2009-12-08 09:34:43 51°22.072 2°51.308 17.6 10.6 15 22.7
2009-12-08 09:34:48 51°22.086 2°51.316 19.3 10.7 20 23.2
2009-12-08 09:34:53 51°22.1 2°51.324 19 10.7 20 23.6
2009-12-08 09:34:58 51°22.114 2°51.331 20.7 10.6 18 23.3
2009-12-08 09:35:03 51°22.128 2°51.341 21.7 10.9 23 22.8
2009-12-08 09:35:08 51°22.142 2°51.348 21 10.8 20 23.2
2009-12-08 09:35:13 51°22.156 2°51.356 21.9 10.9 20 23
2009-12-08 09:35:18 51°22.17 2°51.366 21.9 11 22 23.1
2009-12-08 09:35:23 51°22.184 2°51.374 21.1 10.9 22 23.3
2009-12-08 09:35:28 51°22.198 2°51.383 23.9 10.8 23 22.8
2009-12-08 09:35:33 51°22.212 2°51.39 22.3 10.8 17 22.9
2009-12-08 09:35:38 51°22.227 2°51.399 22.2 10.8 20 22.8
2009-12-08 09:35:43 51°22.24 2°51.409 23.5 10.8 23 23.3
2009-12-08 09:35:48 51°22.254 2°51.416 21.1 10.7 21 23.2
2009-12-08 09:35:53 51°22.268 2°51.426 24.2 10.7 23 23.4
2009-12-08 09:35:58 51°22.283 2°51.432 20.2 10.7 14 22.7
2009-12-08 09:36:02 51°22.293 2°51.442 22.9 10.7 26 23
2009-12-08 09:36:08 51°22.31 2°51.449 20.3 10.5 17 22.6
2009-12-08 09:36:13 51°22.323 2°51.46 23.9 10.6 23 22.7
2009-12-08 09:36:18 51°22.337 2°51.467 21.1 10.6 18 22.9
2009-12-08 09:36:23 51°22.351 2°51.476 21.7 10.7 21 23.6
2009-12-08 09:36:28 51°22.365 2°51.482 20 10.6 20 23.7
2009-12-08 09:36:33 51°22.378 2°51.493 23.1 10.8 23 23.6
2009-12-08 09:36:38 51°22.393 2°51.497 20 10.7 12 23.6
2009-12-08 09:36:43 51°22.407 2°51.507 20.4 10.7 23 22.8
2009-12-08 09:36:48 51°22.421 2°51.515 21.7 10.8 16 22.5
2009-12-08 09:36:53 51°22.435 2°51.521 19.3 10.5 18 22.8
2009-12-08 09:36:58 51°22.448 2°51.531 21.1 10.6 25 24
2009-12-08 09:37:02 51°22.46 2°51.535 18.7 10.8 10 22.3
2009-12-08 09:37:08 51°22.476 2°51.545 19.1 10.5 22 22.2
2009-12-08 09:37:13 51°22.49 2°51.554 21.3 10.6 20 23.1
2009-12-08 09:37:18 51°22.504 2°51.559 17.6 10.6 13 23.1
2009-12-08 09:37:23 51°22.518 2°51.569 21 10.7 25 23.1
2009-12-08 09:37:28 51°22.532 2°51.573 20.3 10.6 12 22
2009-12-08 09:37:33 51°22.546 2°51.584 19.8 10.7 23 22.8
2009-12-08 09:37:38 51°22.56 2°51.591 19.1 10.6 20 23.4
2009-12-08 09:37:43 51°22.574 2°51.597 19 10.7 14 22.4
2009-12-08 09:37:48 51°22.588 2°51.606 20.1 10.6 23 22.9
2009-12-08 09:37:53 51°22.602 2°51.612 19.1 10.7 16 22.9
2009-12-08 09:37:58 51°22.616 2°51.622 22.2 10.6 22 23
2009-12-08 09:38:02 51°22.627 2°51.626 18.7 10.5 19 23.3
2009-12-08 09:38:08 51°22.644 2°51.636 20.2 10.6 16 22.5
2009-12-08 09:38:13 51°22.658 2°51.642 18 10.7 16 22.2
2009-12-08 09:38:18 51°22.672 2°51.651 19.6 10.8 22 22.5
2009-12-08 09:38:23 51°22.686 2°51.657 18.5 10.6 20 23.5
2009-12-08 09:38:28 51°22.7 2°51.665 20.5 10.8 20 23.2
2009-12-08 09:38:33 51°22.715 2°51.672 19.7 10.9 17 23
2009-12-08 09:38:38 51°22.729 2°51.679 18.8 10.7 16 22.3
2009-12-08 09:38:43 51°22.743 2°51.688 20.3 10.9 20 22.7
2009-12-08 09:38:48 51°22.757 2°51.694 18.5 10.8 16 22.7
2009-12-08 09:38:53 51°22.771 2°51.704 20.2 10.9 21 22.7
2009-12-08 09:38:58 51°22.786 2°51.709 18 10.7 15 23.3
2009-12-08 09:39:03 51°22.8 2°51.717 18.8 10.8 22 23.4
2009-12-08 09:39:08 51°22.814 2°51.724 20.5 10.6 14 23
2009-12-08 09:39:13 51°22.828 2°51.731 16.8 10.8 19 23.2
2009-12-08 09:39:18 51°22.842 2°51.738 18.3 10.8 18 22.8
2009-12-08 09:39:23 51°22.857 2°51.745 18.4 10.7 19 22.7
2009-12-08 09:39:28 51°22.871 2°51.752 19.6 10.7 14 22.6
2009-12-08 09:39:33 51°22.885 2°51.758 16.7 10.8 17 22.8
2009-12-08 09:39:38 51°22.899 2°51.767 18.4 10.7 19 23.1
2009-12-08 09:39:43 51°22.914 2°51.774 19.1 10.9 18 23.2
2009-12-08 09:39:48 51°22.928 2°51.78 18.7 10.7 15 22.2
2009-12-08 09:39:53 51°22.942 2°51.789 20.4 10.9 22 22
2009-12-08 09:39:58 51°22.957 2°51.795 18.9 10.9 12 21
2009-12-08 09:40:02 51°22.968 2°51.802 19.6 11 22 23
2009-12-08 09:40:08 51°22.985 2°51.811 20.3 10.7 16 23.1
2009-12-08 09:40:13 51°22.999 2°51.817 18.3 10.5 18 23
2009-12-08 09:40:18 51°23.012 2°51.827 21.6 10.5 21 23.2
2009-12-08 09:40:22 51°23.024 2°51.83 18.1 10.5 15 22.8
2009-12-08 09:40:28 51°23.04 2°51.841 19.8 10.5 20 22.7
2009-12-08 09:40:33 51°23.054 2°51.846 18.5 10.6 18 22.5
2009-12-08 09:40:38 51°23.068 2°51.855 20.3 10.6 19 21.7
2009-12-08 09:40:43 51°23.081 2°51.866 22.8 10.8 26 22.8
2009-12-08 09:40:48 51°23.096 2°51.871 18.9 10.4 15 21.6
2009-12-08 09:40:53 51°23.109 2°51.88 20.3 10.6 19 21.7
2009-12-08 09:40:58 51°23.123 2°51.886 19.2 10.6 18 22.2
2009-12-08 09:41:02 51°23.135 2°51.893 20.3 10.6 19 21.4
2009-12-08 09:41:08 51°23.151 2°51.901 19.6 10.7 17 19.4
2009-12-08 09:41:13 51°23.166 2°51.909 20.4 10.8 20 20.7
2009-12-08 09:41:18 51°23.18 2°51.917 20.2 10.7 18 21.9
2009-12-08 09:41:23 51°23.194 2°51.924 19.2 10.5 20 20.6
2009-12-08 09:41:28 51°23.207 2°51.933 21.1 10.5 20 20.6
2009-12-08 09:41:33 51°23.222 2°51.937 18.2 10.4 15 18.9
2009-12-08 09:41:38 51°23.235 2°51.947 21.6 10.7 23 18.4
2009-12-08 09:41:42 51°23.247 2°51.951 18.2 10.4 13 18.5
2009-12-08 09:41:48 51°23.262 2°51.963 21 10.4 24 19.1
2009-12-08 09:41:53 51°23.276 2°51.97 20.7 10.5 17 19.3
2009-12-08 09:41:58 51°23.29 2°51.977 19.3 10.5 16 17.1
2009-12-08 09:42:03 51°23.304 2°51.986 20.4 10.7 21 18.2
2009-12-08 09:42:08 51°23.318 2°51.992 18.9 10.3 16 17.1
2009-12-08 09:42:13 51°23.331 2°52.002 22 10.8 24 18
2009-12-08 09:42:18 51°23.346 2°52.005 17.4 10.7 9 17.6
2009-12-08 09:42:22 51°23.357 2°52.014 20.2 10.6 25 17.8
2009-12-08 09:42:28 51°23.374 2°52.023 21 10.7 17 18.3
2009-12-08 09:42:33 51°23.388 2°52.029 18.2 10.5 16 17.8
2009-12-08 09:42:38 51°23.402 2°52.039 22.4 10.9 22 18.3
2009-12-08 09:42:43 51°23.416 2°52.044 17.9 10.7 15 18.2
2009-12-08 09:42:48 51°23.43 2°52.05 18 10.5 17 17
2009-12-08 09:42:53 51°23.444 2°52.059 20 11 20 15.6
2009-12-08 09:42:58 51°23.459 2°52.064 16.9 10.6 12 15.8
2009-12-08 09:43:03 51°23.472 2°52.075 19.5 10.8 28 17.6
2009-12-08 09:43:08 51°23.486 2°52.082 20.8 10.7 17 17.5
2009-12-08 09:43:13 51°23.5 2°52.087 17.3 10.4 18 -999
2009-12-08 09:43:18 51°23.513 2°52.097 22.6 10.6 21 16.1
2009-12-08 09:43:23 51°23.528 2°52.101 17.2 10.5 13 14.3
2009-12-08 09:43:28 51°23.541 2°52.11 18.9 10.5 19 15.8
2009-12-08 09:43:33 51°23.556 2°52.116 19 10.8 20 16.6
2009-12-08 09:43:38 51°23.569 2°52.124 19.1 10.6 18 15.5
2009-12-08 09:43:43 51°23.583 2°52.129 18 10.4 18 15.3
2009-12-08 09:43:48 51°23.597 2°52.138 19.8 10.6 18 15.4
2009-12-08 09:43:53 51°23.611 2°52.143 17.7 10.3 15 15.9
2009-12-08 09:43:58 51°23.625 2°52.152 19.4 10.5 21 16.1
2009-12-08 09:44:02 51°23.637 2°52.157 19.5 10.6 13 16.3
2009-12-08 09:44:08 51°23.653 2°52.164 18.4 10.6 17 16
2009-12-08 09:44:13 51°23.667 2°52.176 20.7 10.9 24 17.3
2009-12-08 09:44:18 51°23.682 2°52.179 17.3 10.7 11 16.4
2009-12-08 09:44:23 51°23.695 2°52.19 20.6 10.7 25 16.7
2009-12-08 09:44:28 51°23.709 2°52.196 20.1 10.6 14 17
2009-12-08 09:44:33 51°23.723 2°52.203 18.2 10.5 19 15.7
2009-12-08 09:44:38 51°23.737 2°52.213 21.4 10.9 25 16.1
2009-12-08 09:44:43 51°23.751 2°52.216 17.1 10.4 14 16.8
2009-12-08 09:44:48 51°23.765 2°52.226 20.5 10.6 24 16.3
2009-12-08 09:44:53 51°23.779 2°52.233 20.6 10.8 15 16.9
2009-12-08 09:44:58 51°23.793 2°52.238 16.9 10.5 14 17.8
2009-12-08 09:45:03 51°23.807 2°52.247 20.3 10.7 22 16.1
2009-12-08 09:45:08 51°23.822 2°52.254 20.2 11 15 16.2
2009-12-08 09:45:13 51°23.835 2°52.261 17.9 10.3 18 16.8
2009-12-08 09:45:18 51°23.848 2°52.271 21.2 10.5 24 16.3
2009-12-08 09:45:22 51°23.86 2°52.275 19.8 10.7 9 15.5
2009-12-08 09:45:28 51°23.876 2°52.282 15.8 10.3 18 16.6
2009-12-08 09:45:33 51°23.89 2°52.29 19.3 10.5 19 17.7
2009-12-08 09:45:38 51°23.904 2°52.295 18.3 10.5 14 17.3
2009-12-08 09:45:43 51°23.918 2°52.303 18.5 10.5 18 15.6
2009-12-08 09:45:48 51°23.932 2°52.31 18.7 10.8 14 13.6
2009-12-08 09:45:53 51°23.947 2°52.318 18.9 11 20 16.3
2009-12-08 09:45:58 51°23.961 2°52.324 19.1 10.6 17 16.5
2009-12-08 09:46:03 51°23.975 2°52.332 19.7 10.8 20 17.2
2009-12-08 09:46:08 51°23.989 2°52.34 20.3 10.8 17 17.8
2009-12-08 09:46:13 51°24.003 2°52.348 20 10.8 19 18.2
2009-12-08 09:46:18 51°24.016 2°52.358 21.2 10.7 25 18.8
2009-12-08 09:46:23 51°24.03 2°52.366 23.5 10.9 21 18.5
2009-12-08 09:46:29 51°24.047 2°52.378 24.3 10.7 24 18.3
2009-12-08 09:46:33 51°24.057 2°52.387 25.4 10.7 28 19.1
2009-12-08 09:46:38 51°24.07 2°52.398 29 10.7 26 18.7
2009-12-08 09:46:43 51°24.084 2°52.407 26.3 10.7 23 17.8
2009-12-08 09:46:48 51°24.096 2°52.418 27.9 10.6 29 15.8
2009-12-08 09:46:53 51°24.109 2°52.43 28.3 10.8 30 17.6
2009-12-08 09:46:58 51°24.124 2°52.437 25.2 10.6 19 18.1
2009-12-08 09:47:03 51°24.137 2°52.447 25.1 10.5 27 18.1
2009-12-08 09:47:08 51°24.151 2°52.455 26 10.5 17 18.3
2009-12-08 09:47:13 51°24.165 2°52.461 20 10.5 14 18.8
2009-12-08 09:47:18 51°24.179 2°52.469 18.7 10.6 20 19.8
2009-12-08 09:47:23 51°24.193 2°52.473 15.3 10.5 9 18.8
2009-12-08 09:47:28 51°24.207 2°52.476 12.2 10.4 9 16.5
2009-12-08 09:47:33 51°24.222 2°52.48 10.6 10.7 10 17.1
2009-12-08 09:47:38 51°24.237 2°52.48 6.4 10.6 2 17.1
2009-12-08 09:47:43 51°24.251 2°52.484 6.7 10.6 10 17.5
2009-12-08 09:47:48 51°24.265 2°52.486 6.5 10.7 3 19.2
2009-12-08 09:47:53 51°24.28 2°52.486 2.5 10.5 2 19.7
2009-12-08 09:47:58 51°24.294 2°52.487 3.5 10.4 2 19.9
2009-12-08 09:48:02 51°24.306 2°52.488 3 10.6 2 19.8
2009-12-08 09:48:08 51°24.324 2°52.486 0.8 10.4 359 19.1
2009-12-08 09:48:13 51°24.338 2°52.489 3.8 10.4 3 18.3
2009-12-08 09:48:18 51°24.353 2°52.488 1.5 10.3 359 17.2
2009-12-08 09:48:23 51°24.367 2°52.488 359.9 10.6 358 16.5
2009-12-08 09:48:28 51°24.382 2°52.488 0.4 10.7 3 16.8
2009-12-08 09:48:33 51°24.397 2°52.487 0.4 10.4 358 17.3
2009-12-08 09:48:38 51°24.411 2°52.489 0.9 10.3 3 18.5
2009-12-08 09:48:43 51°24.425 2°52.489 1.7 10.3 3 18.5
2009-12-08 09:48:48 51°24.44 2°52.49 2.5 10.4 3 18.8
2009-12-08 09:48:53 51°24.454 2°52.491 3.9 10.4 3 19.1
2009-12-08 09:48:58 51°24.469 2°52.493 4.1 10.5 2 19.8
2009-12-08 09:49:02 51°24.48 2°52.494 4.4 10.7 6 19.9
2009-12-08 09:49:08 51°24.498 2°52.496 3.4 10.5 3 18.7
2009-12-08 09:49:13 51°24.513 2°52.498 4.3 10.6 7 19.2
2009-12-08 09:49:18 51°24.527 2°52.5 5.6 10.6 4 18.4
2009-12-08 09:49:23 51°24.542 2°52.5 3.9 10.3 1 18
2009-12-08 09:49:28 51°24.556 2°52.505 5.2 10.4 9 19.6
2009-12-08 09:49:33 51°24.57 2°52.505 4.4 10.4 1 20
2009-12-08 09:49:38 51°24.585 2°52.508 5.9 10.5 6 19.4
2009-12-08 09:49:43 51°24.6 2°52.512 7.6 10.6 5 20
2009-12-08 09:49:48 51°24.614 2°52.513 5.2 10.6 7 20.2
2009-12-08 09:49:53 51°24.628 2°52.516 6.6 10.7 8 19
2009-12-08 09:49:58 51°24.643 2°52.518 7.1 10.7 3 19.4
2009-12-08 09:50:02 51°24.654 2°52.52 6.2 10.6 11 19.6
2009-12-08 09:50:08 51°24.672 2°52.525 8.4 10.4 8 19.7
2009-12-08 09:50:13 51°24.686 2°52.525 5.8 10.5 4 18.9
2009-12-08 09:50:18 51°24.701 2°52.531 7.9 10.7 12 19.2
2009-12-08 09:50:23 51°24.715 2°52.531 5.2 10.2 4 19.9
2009-12-08 09:50:28 51°24.729 2°52.536 7.6 10.4 13 19.3
2009-12-08 09:50:33 51°24.744 2°52.536 6.8 10.4 -999 18.9
2009-12-08 09:50:38 51°24.758 2°52.54 6.9 10.5 8 18.4
2009-12-08 09:50:43 51°24.772 2°52.542 6.6 10.3 6 19.3
2009-12-08 09:50:48 51°24.787 2°52.545 7.9 10.4 6 20.1
2009-12-08 09:50:53 51°24.801 2°52.547 7.6 10.5 6 19.9
2009-12-08 09:50:58 51°24.816 2°52.549 6.2 10.7 3 20.7
2009-12-08 09:51:03 51°24.831 2°52.552 6 10.6 6 20.2
2009-12-08 09:51:08 51°24.846 2°52.555 7.4 10.5 4 20.4
2009-12-08 09:51:13 51°24.86 2°52.557 6.5 10.6 4 20.7
2009-12-08 09:51:18 51°24.875 2°52.561 8.1 10.6 8 21.3
2009-12-08 09:51:23 51°24.889 2°52.561 6.2 10.6 2 21.3
2009-12-08 09:51:28 51°24.904 2°52.565 6.1 10.5 9 22.3
2009-12-08 09:51:33 51°24.918 2°52.566 6.2 10.5 5 22.1
2009-12-08 09:51:38 51°24.933 2°52.569 6.5 10.5 4 21.6
2009-12-08 09:51:43 51°24.948 2°52.571 5.1 10.6 5 21.9
2009-12-08 09:51:48 51°24.962 2°52.574 5.9 10.6 6 21.8
2009-12-08 09:51:53 51°24.977 2°52.576 6.7 10.6 5 21.7
2009-12-08 09:51:58 51°24.992 2°52.578 6.4 10.5 4 22
2009-12-08 09:52:03 51°25.006 2°52.583 8.2 10.6 13 23
2009-12-08 09:52:08 51°25.021 2°52.582 7 10.6 358 22.1
2009-12-08 09:52:13 51°25.035 2°52.587 6.6 10.5 11 22.6
2009-12-08 09:52:18 51°25.049 2°52.589 5.9 10.5 6 22.5
2009-12-08 09:52:23 51°25.064 2°52.59 7.5 10.4 3 22.9
2009-12-08 09:52:28 51°25.078 2°52.592 4.2 10.5 7 23.7
2009-12-08 09:52:33 51°25.093 2°52.593 5.7 10.5 4 22.8
2009-12-08 09:52:38 51°25.107 2°52.596 6.7 10.4 5 22.6
2009-12-08 09:52:43 51°25.122 2°52.6 7.2 10.7 8 22.8
2009-12-08 09:52:48 51°25.137 2°52.601 6.3 10.6 6 22.7
2009-12-08 09:52:53 51°25.151 2°52.607 8.7 10.7 10 22.9
2009-12-08 09:52:58 51°25.166 2°52.607 5.9 10.5 3 23
2009-12-08 09:53:03 51°25.18 2°52.613 9.7 10.6 14 23.4
2009-12-08 09:53:08 51°25.194 2°52.614 8.8 10.5 3 22.7
2009-12-08 09:53:13 51°25.209 2°52.619 9.2 10.6 11 22.6
2009-12-08 09:53:18 51°25.224 2°52.621 9.6 10.6 6 22.6
2009-12-08 09:53:23 51°25.238 2°52.624 8.7 10.7 6 22.3
2009-12-08 09:53:29 51°25.256 2°52.629 8.7 10.7 11 23.1
2009-12-08 09:53:33 51°25.268 2°52.629 7.3 10.6 4 23.1
2009-12-08 09:53:38 51°25.282 2°52.635 9.5 10.7 13 23.4
2009-12-08 09:53:43 51°25.297 2°52.635 6.6 10.7 3 23.2
2009-12-08 09:53:48 51°25.311 2°52.641 9.9 10.8 13 23.2
2009-12-08 09:53:53 51°25.326 2°52.642 5.8 10.5 5 22.5
2009-12-08 09:53:58 51°25.34 2°52.646 9.5 10.6 11 22.6
2009-12-08 09:54:03 51°25.354 2°52.649 8.6 10.4 4 22.5
2009-12-08 09:54:08 51°25.369 2°52.652 8 10.5 11 23.3
2009-12-08 09:54:13 51°25.383 2°52.655 10.5 10.6 4 22.7
2009-12-08 09:54:18 51°25.398 2°52.661 10.7 10.5 13 23.4
2009-12-08 09:54:23 51°25.412 2°52.665 8.8 10.5 11 23.9
2009-12-08 09:54:28 51°25.426 2°52.667 11.5 10.5 4 22.5
2009-12-08 09:54:33 51°25.44 2°52.672 7.2 10.6 11 23.6
2009-12-08 09:54:38 51°25.455 2°52.676 8.9 10.5 10 23.1
2009-12-08 09:54:43 51°25.469 2°52.68 11.2 10.3 8 23.2
2009-12-08 09:54:48 51°25.483 2°52.682 8 10.4 10 23.9
2009-12-08 09:54:53 51°25.498 2°52.687 11.4 10.5 9 23.3
2009-12-08 09:54:58 51°25.512 2°52.691 9.7 10.3 9 23.2
2009-12-08 09:55:03 51°25.525 2°52.695 10.4 10.2 11 24.3
2009-12-08 09:55:08 51°25.54 2°52.7 12.3 10.4 11 23.8
2009-12-08 09:55:13 51°25.554 2°52.703 8.5 10.2 9 24.3
2009-12-08 09:55:18 51°25.568 2°52.708 12.3 10.4 13 24.8
2009-12-08 09:55:23 51°25.582 2°52.71 10.2 10.4 7 24.8
2009-12-08 09:55:29 51°25.599 2°52.716 10.7 10.6 12 24.5
2009-12-08 09:55:33 51°25.611 2°52.718 10.3 10.4 6 24.5
2009-12-08 09:55:38 51°25.625 2°52.722 9.2 10.4 8 24.9
2009-12-08 09:55:43 51°25.64 2°52.727 11.9 10.4 11 25.3
2009-12-08 09:55:48 51°25.654 2°52.728 8.1 10.5 7 25.4
2009-12-08 09:55:53 51°25.668 2°52.735 12.4 10.4 13 24.2
2009-12-08 09:55:58 51°25.682 2°52.738 9.9 10.4 8 25.1
2009-12-08 09:56:03 51°25.696 2°52.743 10.2 10.4 12 26.1
2009-12-08 09:56:08 51°25.711 2°52.744 9.5 10.4 6 25.4
2009-12-08 09:56:13 51°25.725 2°52.751 12.4 10.6 14 25.6
2009-12-08 09:56:18 51°25.74 2°52.752 9.8 10.5 4 25.3
2009-12-08 09:56:23 51°25.754 2°52.758 10.7 10.6 11 25.7
2009-12-08 09:56:28 51°25.768 2°52.76 9.5 10.6 9 26.5
2009-12-08 09:56:33 51°25.783 2°52.764 10.9 10.6 9 26.1
2009-12-08 09:56:38 51°25.797 2°52.769 10.5 10.6 11 27.1
2009-12-08 09:56:43 51°25.812 2°52.772 11.1 10.5 8 27
2009-12-08 09:56:48 51°25.827 2°52.776 11 10.5 10 26.7
2009-12-08 09:56:53 51°25.841 2°52.781 12.1 10.6 8 26.2
2009-12-08 09:56:58 51°25.856 2°52.784 10 10.5 9 26.2
2009-12-08 09:57:03 51°25.87 2°52.79 10.7 10.6 12 26.1
2009-12-08 09:57:08 51°25.884 2°52.794 10.4 10.7 12 27.1
2009-12-08 09:57:13 51°25.899 2°52.797 10.6 10.6 11 26.7
2009-12-08 09:57:18 51°25.913 2°52.801 11 10.6 10 26.1
2009-12-08 09:57:23 51°25.927 2°52.805 10.7 10.5 11 26.8
2009-12-08 09:57:29 51°25.945 2°52.812 11.6 10.7 14 27.4
2009-12-08 09:57:33 51°25.956 2°52.812 9.4 10.4 5 26.5
2009-12-08 09:57:38 51°25.97 2°52.819 12.6 10.4 16 27.4
2009-12-08 09:57:43 51°25.984 2°52.82 9.9 10.2 5 26.2
2009-12-08 09:57:48 51°25.998 2°52.828 12 10.3 17 26.2
2009-12-08 09:57:53 51°26.012 2°52.83 11.3 10.3 9 26.5
2009-12-08 09:57:58 51°26.026 2°52.834 10.5 10.2 7 26
2009-12-08 09:58:03 51°26.04 2°52.841 12.6 10.4 17 27.2
2009-12-08 09:58:08 51°26.054 2°52.842 11.2 10.2 4 26.8
2009-12-08 09:58:13 51°26.068 2°52.849 12 10.4 16 26.9
2009-12-08 09:58:18 51°26.082 2°52.85 10.8 10.3 3 26.3
2009-12-08 09:58:23 51°26.096 2°52.854 9.1 10.3 11 26.5
2009-12-08 09:58:28 51°26.11 2°52.858 10.2 10.3 10 26.2
2009-12-08 09:58:33 51°26.125 2°52.86 9.7 10.5 5 26.2
2009-12-08 09:58:38 51°26.139 2°52.863 9.4 10.5 8 25.6
2009-12-08 09:58:43 51°26.154 2°52.867 10 10.7 9 25.4
2009-12-08 09:58:48 51°26.168 2°52.869 9 10.4 4 24.9
2009-12-08 09:58:53 51°26.182 2°52.875 10.4 10.6 13 26
2009-12-08 09:58:58 51°26.197 2°52.875 8.9 10.5 3 25
2009-12-08 09:59:03 51°26.211 2°52.882 11.2 10.6 17 25.5
2009-12-08 09:59:08 51°26.226 2°52.883 10.3 10.5 4 25.7
2009-12-08 09:59:13 51°26.24 2°52.888 10.6 10.5 11 26
2009-12-08 09:59:18 51°26.255 2°52.891 9.6 10.4 8 26.3
2009-12-08 09:59:23 51°26.269 2°52.894 9.8 10.5 8 25.4
2009-12-08 09:59:28 51°26.283 2°52.899 11.8 10.6 11 25.1
2009-12-08 09:59:33 51°26.298 2°52.902 10.4 10.5 8 24.9
2009-12-08 09:59:38 51°26.313 2°52.905 10.9 10.6 7 24.6
2009-12-08 09:59:43 51°26.327 2°52.91 11.4 10.6 10 25.3
2009-12-08 09:59:48 51°26.341 2°52.914 10.4 10.5 8 25.3
2009-12-08 09:59:53 51°26.356 2°52.916 9 10.6 9 25.9
2009-12-08 09:59:58 51°26.37 2°52.922 11.3 10.6 14 25.9
2009-12-08 10:00:03 51°26.385 2°52.924 10.2 10.4 6 25.6
2009-12-08 10:00:08 51°26.399 2°52.928 9.6 10.5 11 25.1
2009-12-08 10:00:13 51°26.413 2°52.932 10.6 10.5 11 26.1
2009-12-08 10:00:18 51°26.427 2°52.934 8.2 10.4 4 26.3
2009-12-08 10:00:23 51°26.441 2°52.94 13 10.2 14 26.2
2009-12-08 10:00:28 51°26.455 2°52.944 13.6 10.3 12 26.9
2009-12-08 10:00:33 51°26.469 2°52.947 11 10.3 6 27.5